METAR & TAF

RJTY 261958Z AUTO 36004KT 10SM OVC050 23/19 A2987 RMK AO2 SLP112 T02270190
RJTY 261858Z AUTO 32004KT 10SM OVC060 23/19 A2986 RMK AO2 SLP109
RJTY 261834Z AUTO 35004KT 10SM OVC060 22/19 A2986 RMK AO2 SLP109
RJTY 261824Z AUTO 33003KT 8SM R18/5500FT OVC060 22/19 A2985 RMK AO2 SLP105
RJTY 261758Z AUTO 31004KT 10SM OVC060 23/19 A2985 RMK AO2 SLP105 T02290194 10239 20227 57004
RJTY 261658Z AUTO 34005KT 10SM OVC060 23/20 A2986 RMK AO2 SLP109 T02300198
RJTY 261558Z AUTO 00000KT 10SM FEW048 OVC060 23/20 A2986 RMK AO2 SLP109 T02310197

TAF RJTY 261300Z 2613/2719 VRB06KT 9999 SCT020 BKN040 QNH2978INS
  BECMG 2702/2703 03009KT 9999 SCT020 BKN050 QNH2982INS
  BECMG 2713/2714 06006KT 6000 -SHRA BR BKN015 OVC020 QNH2984INS TX27/2706Z TN22/2618Z LAST NO AMDS AFT 2613 NEXT 2621